createdAt,value
2023-04-08T00:00:18.119Z,0.20
2023-04-08T00:02:46.069Z,0.10
2023-04-08T00:05:13.471Z,0.20
2023-04-08T00:07:40.865Z,0.17
2023-04-08T00:10:08.915Z,0.20
2023-04-08T00:12:36.258Z,0.10
2023-04-08T00:15:03.726Z,0.20
2023-04-08T00:17:31.094Z,0.20
2023-04-08T00:19:58.557Z,0.20
2023-04-08T00:22:26.179Z,0.40
2023-04-08T00:24:53.529Z,0.25
2023-04-08T00:27:21.127Z,0.25
2023-04-08T00:29:48.500Z,0.50
2023-04-08T00:32:16.162Z,0.20
2023-04-08T00:34:43.596Z,0.10
2023-04-08T00:37:11.462Z,0.20
2023-04-08T00:39:38.906Z,0.20
2023-04-08T00:42:06.764Z,0.20
2023-04-08T00:44:34.108Z,0.15
2023-04-08T00:47:01.513Z,0.10
2023-04-08T00:49:29.006Z,0.10
2023-04-08T00:51:56.379Z,0.20
2023-04-08T00:54:23.932Z,0.20
2023-04-08T00:56:51.337Z,0.10
2023-04-08T00:59:18.852Z,0.20
2023-04-08T01:02:24.317Z,0.15
2023-04-08T01:05:12.396Z,0.20
2023-04-08T01:07:50.260Z,0.10
2023-04-08T01:10:29.588Z,0.50
2023-04-08T01:13:00.150Z,0.20
2023-04-08T01:15:29.267Z,0.20
2023-04-08T01:17:57.752Z,0.10
2023-04-08T01:20:26.598Z,0.20
2023-04-08T01:23:22.696Z,0.20
2023-04-08T01:25:57.090Z,0.15
2023-04-08T01:28:28.445Z,0.15
2023-04-08T01:30:59.639Z,0.20
2023-04-08T01:33:29.068Z,0.20
2023-04-08T01:35:58.026Z,0.10
2023-04-08T01:38:29.551Z,0.20
2023-04-08T01:40:57.978Z,0.10
2023-04-08T01:43:25.848Z,0.20
2023-04-08T01:45:58.252Z,0.77
2023-04-08T01:48:26.263Z,0.20
2023-04-08T01:50:53.997Z,0.30
2023-04-08T01:53:21.439Z,0.20
2023-04-08T01:55:53.513Z,0.20
2023-04-08T01:58:22.168Z,0.10
2023-04-08T02:00:51.832Z,0.10
2023-04-08T02:03:21.626Z,0.35
2023-04-08T02:05:49.361Z,0.20
2023-04-08T02:08:16.727Z,0.10
2023-04-08T02:10:44.115Z,0.20
2023-04-08T02:13:11.720Z,0.10
2023-04-08T02:15:43.375Z,0.20
2023-04-08T02:18:16.799Z,0.10
2023-04-08T02:21:15.605Z,0.20
2023-04-08T02:23:46.520Z,0.10
2023-04-08T02:26:16.167Z,0.10
2023-04-08T02:28:43.751Z,0.28
2023-04-08T02:31:15.760Z,0.10
2023-04-08T02:33:44.326Z,0.73
2023-04-08T02:36:12.954Z,0.10
2023-04-08T02:38:40.822Z,0.22
2023-04-08T02:41:08.212Z,0.52
2023-04-08T02:43:35.729Z,0.20
2023-04-08T02:46:04.418Z,0.10
2023-04-08T02:48:32.081Z,0.35
2023-04-08T02:50:59.436Z,0.20
2023-04-08T02:53:26.838Z,0.20
2023-04-08T02:55:54.209Z,0.10
2023-04-08T02:58:21.563Z,0.20
2023-04-08T03:00:48.972Z,0.20
2023-04-08T03:03:16.585Z,0.10
2023-04-08T03:05:44.016Z,0.65
2023-04-08T03:08:11.367Z,0.10
2023-04-08T03:10:38.336Z,0.10
2023-04-08T03:13:05.930Z,0.20
2023-04-08T03:15:33.283Z,0.20
2023-04-08T03:18:00.766Z,0.20
2023-04-08T03:20:28.129Z,0.20
2023-04-08T03:22:55.532Z,0.20
2023-04-08T03:25:22.863Z,0.10
2023-04-08T03:27:51.150Z,0.10
2023-04-08T03:30:18.719Z,0.63
2023-04-08T03:32:46.230Z,0.10
2023-04-08T03:35:13.793Z,0.10
2023-04-08T03:37:41.189Z,0.10
2023-04-08T03:40:09.443Z,0.25
2023-04-08T03:42:36.921Z,0.20
2023-04-08T03:45:04.686Z,0.10
2023-04-08T03:47:32.075Z,0.35
2023-04-08T03:49:59.561Z,0.20
2023-04-08T03:52:26.966Z,0.20
2023-04-08T03:54:54.330Z,0.30
2023-04-08T03:57:21.720Z,0.20
2023-04-08T03:59:49.081Z,0.10
2023-04-08T04:02:16.517Z,0.43
2023-04-08T04:04:44.065Z,0.10
2023-04-08T04:07:11.024Z,0.20
2023-04-08T04:09:38.009Z,0.15
2023-04-08T04:12:05.590Z,0.30
2023-04-08T04:14:32.966Z,0.20
2023-04-08T04:17:00.484Z,0.17
2023-04-08T04:19:31.813Z,0.22
2023-04-08T04:21:59.178Z,0.20
2023-04-08T04:24:26.591Z,0.10
2023-04-08T04:26:53.928Z,0.20
2023-04-08T04:29:21.324Z,0.20
2023-04-08T04:31:48.671Z,0.30
2023-04-08T04:34:17.274Z,0.47
2023-04-08T04:36:44.684Z,0.77
2023-04-08T04:39:12.251Z,0.20
2023-04-08T04:41:40.717Z,0.22
2023-04-08T04:44:08.466Z,0.77
2023-04-08T04:46:35.951Z,0.10
2023-04-08T04:49:03.428Z,0.10
2023-04-08T04:51:33.369Z,0.10
2023-04-08T04:54:01.294Z,0.10
2023-04-08T04:56:28.815Z,0.10
2023-04-08T04:58:56.592Z,0.10
2023-04-08T05:01:24.057Z,0.20
2023-04-08T05:03:51.965Z,0.95
2023-04-08T05:06:19.378Z,0.10
2023-04-08T05:08:46.720Z,0.10
2023-04-08T05:11:14.074Z,0.10
2023-04-08T05:13:41.704Z,0.10
2023-04-08T05:16:09.278Z,0.20
2023-04-08T05:18:36.818Z,0.10
2023-04-08T05:21:04.402Z,0.22
2023-04-08T05:23:31.779Z,0.20
2023-04-08T05:25:59.679Z,0.20
2023-04-08T05:28:27.275Z,1.00
2023-04-08T05:30:54.915Z,0.20
2023-04-08T05:33:22.344Z,0.10
2023-04-08T05:35:49.772Z,0.10
2023-04-08T05:38:17.306Z,0.30
2023-04-08T05:40:44.638Z,0.10
2023-04-08T05:43:12.176Z,0.20
2023-04-08T05:45:39.550Z,0.20
2023-04-08T05:48:07.359Z,0.20
2023-04-08T05:50:36.473Z,0.20
2023-04-08T05:53:03.831Z,0.10
2023-04-08T05:55:31.211Z,0.43
2023-04-08T05:57:58.744Z,0.43
2023-04-08T06:00:26.406Z,0.10
2023-04-08T06:02:54.281Z,0.20
2023-04-08T06:05:21.858Z,0.10
2023-04-08T06:07:49.215Z,0.20
2023-04-08T06:10:16.682Z,0.20
2023-04-08T06:12:44.038Z,0.20
2023-04-08T06:15:11.417Z,0.28
2023-04-08T06:17:39.204Z,0.30
2023-04-08T06:20:07.504Z,0.22
2023-04-08T06:22:36.079Z,0.30
2023-04-08T06:25:03.393Z,0.20
2023-04-08T06:27:30.762Z,0.93
2023-04-08T06:29:58.161Z,0.30
2023-04-08T06:32:25.603Z,0.17
2023-04-08T06:34:53.028Z,0.20
2023-04-08T06:37:20.614Z,0.10
2023-04-08T06:39:48.223Z,0.10
2023-04-08T06:42:15.763Z,0.10
2023-04-08T06:44:43.104Z,0.10
2023-04-08T06:47:10.546Z,0.20
2023-04-08T06:49:38.078Z,0.82
2023-04-08T06:52:07.042Z,0.20
2023-04-08T06:54:34.475Z,0.10
2023-04-08T06:57:02.075Z,0.20
2023-04-08T06:59:30.504Z,0.55
2023-04-08T07:01:57.935Z,0.20
2023-04-08T07:04:25.655Z,0.20
2023-04-08T07:06:52.852Z,0.10
2023-04-08T07:09:20.603Z,0.10
2023-04-08T07:11:47.886Z,0.52
2023-04-08T07:14:15.293Z,0.10
2023-04-08T07:16:42.710Z,0.20
2023-04-08T07:19:10.058Z,0.20
2023-04-08T07:21:37.461Z,0.45
2023-04-08T07:24:05.096Z,0.10
2023-04-08T07:26:32.742Z,0.20
2023-04-08T07:29:00.202Z,0.20
2023-04-08T07:31:27.813Z,0.10
2023-04-08T07:33:55.438Z,0.20
2023-04-08T07:36:22.894Z,0.10
2023-04-08T07:38:50.726Z,0.20
2023-04-08T07:41:18.224Z,0.10
2023-04-08T07:43:46.137Z,0.10
2023-04-08T07:46:13.731Z,0.20
2023-04-08T07:48:41.249Z,0.10
2023-04-08T07:51:11.364Z,0.10
2023-04-08T07:53:40.625Z,0.63
2023-04-08T07:56:15.658Z,0.52
2023-04-08T07:58:43.660Z,0.10
2023-04-08T08:01:22.431Z,0.30
2023-04-08T08:03:52.262Z,0.20
2023-04-08T08:06:20.997Z,0.40
2023-04-08T08:08:48.609Z,0.20
2023-04-08T08:11:16.427Z,0.50
2023-04-08T08:13:44.398Z,0.20
2023-04-08T08:16:12.761Z,0.10
2023-04-08T08:18:41.364Z,1.17
2023-04-08T08:21:09.415Z,0.10
2023-04-08T08:23:37.968Z,0.10
2023-04-08T08:26:10.280Z,1.23
2023-04-08T08:28:38.544Z,0.10
2023-04-08T08:31:06.541Z,0.20
2023-04-08T08:33:34.375Z,0.45
2023-04-08T08:36:01.910Z,0.68
2023-04-08T08:38:29.464Z,0.30
2023-04-08T08:40:58.867Z,0.10
2023-04-08T08:43:27.371Z,0.50
2023-04-08T08:45:55.077Z,0.10
2023-04-08T08:48:22.456Z,1.63
2023-04-08T08:50:50.028Z,0.47
2023-04-08T08:53:17.210Z,0.43
2023-04-08T08:56:13.736Z,311.77
2023-04-08T08:58:31.945Z,306.30
2023-04-08T09:00:59.336Z,313.80
2023-04-08T09:03:28.895Z,305.03
2023-04-08T09:06:02.444Z,300.00
2023-04-08T09:08:30.059Z,305.70
2023-04-08T09:11:15.014Z,304.03
2023-04-08T09:13:43.276Z,296.93
2023-04-08T09:16:16.593Z,333.43
2023-04-08T09:18:45.962Z,343.23
2023-04-08T09:21:14.961Z,342.57
2023-04-08T09:23:52.917Z,352.53
2023-04-08T09:26:24.802Z,340.20
2023-04-08T09:29:10.911Z,347.13
2023-04-08T09:31:42.447Z,333.67
2023-04-08T09:34:15.491Z,340.47
2023-04-08T09:36:52.671Z,362.53
2023-04-08T09:39:20.447Z,345.37
2023-04-08T09:41:53.213Z,345.20
2023-04-08T09:44:29.349Z,349.37
2023-04-08T09:47:16.118Z,340.97
2023-04-08T09:49:58.589Z,366.87
2023-04-08T09:52:34.591Z,355.93
2023-04-08T09:55:17.828Z,351.03
2023-04-08T09:58:02.948Z,361.40
2023-04-08T10:00:35.480Z,362.50
2023-04-08T10:03:38.767Z,370.87
2023-04-08T10:06:08.691Z,363.40
2023-04-08T10:08:36.611Z,360.30
2023-04-08T10:11:04.555Z,367.90
2023-04-08T10:13:32.208Z,375.03
2023-04-08T10:16:26.160Z,365.60
2023-04-08T10:18:57.328Z,368.00
2023-04-08T10:21:48.687Z,373.37
2023-04-08T10:24:16.164Z,374.60
2023-04-08T10:26:46.878Z,389.43
2023-04-08T10:29:19.962Z,370.27
2023-04-08T10:31:51.544Z,372.60
2023-04-08T10:34:20.561Z,423.00
2023-04-08T10:36:48.957Z,400.97
2023-04-08T10:39:16.804Z,427.07
2023-04-08T10:41:49.010Z,436.33
2023-04-08T10:44:23.944Z,444.40
2023-04-08T10:46:53.407Z,463.80
2023-04-08T10:49:22.262Z,492.03
2023-04-08T10:51:49.726Z,451.60
2023-04-08T10:54:18.638Z,482.23
2023-04-08T10:56:53.683Z,500.63
2023-04-08T10:59:34.423Z,523.93
2023-04-08T11:02:02.550Z,545.20
2023-04-08T11:04:30.383Z,549.47
2023-04-08T11:06:58.588Z,573.37
2023-04-08T11:09:26.071Z,520.70
2023-04-08T11:11:53.970Z,514.80
2023-04-08T11:14:22.518Z,534.27
2023-04-08T11:16:49.930Z,531.23
2023-04-08T11:19:18.117Z,556.50
2023-04-08T11:21:45.677Z,536.13
2023-04-08T11:24:13.599Z,565.43
2023-04-08T11:26:41.688Z,590.33
2023-04-08T11:29:15.071Z,611.67
2023-04-08T11:31:44.049Z,657.03
2023-04-08T11:34:13.151Z,675.33
2023-04-08T11:36:42.986Z,647.97
2023-04-08T11:39:12.263Z,621.00
2023-04-08T11:41:43.119Z,647.60
2023-04-08T11:44:10.499Z,678.77
2023-04-08T11:46:38.059Z,643.17
2023-04-08T11:49:08.045Z,676.87
2023-04-08T11:51:55.086Z,710.67
2023-04-08T11:54:33.349Z,727.60
2023-04-08T11:57:01.063Z,720.57
2023-04-08T11:59:29.797Z,734.80
2023-04-08T12:01:57.692Z,740.03
2023-04-08T12:04:25.602Z,752.87
2023-04-08T12:06:53.417Z,760.87
2023-04-08T12:09:20.889Z,760.93
2023-04-08T12:11:48.407Z,766.23
2023-04-08T12:14:16.056Z,770.27
2023-04-08T12:16:43.508Z,762.13
2023-04-08T12:19:10.930Z,764.43
2023-04-08T12:21:38.424Z,787.70
2023-04-08T12:24:07.373Z,798.53
2023-04-08T12:26:34.808Z,807.67
2023-04-08T12:29:02.461Z,816.67
2023-04-08T12:31:30.302Z,833.20
2023-04-08T12:33:57.671Z,819.57
2023-04-08T12:36:25.119Z,812.70
2023-04-08T12:38:52.607Z,809.20
2023-04-08T12:41:20.086Z,808.67
2023-04-08T12:43:47.402Z,795.13
2023-04-08T12:46:14.698Z,794.43
2023-04-08T12:48:42.474Z,792.97
2023-04-08T12:51:10.541Z,809.10
2023-04-08T12:53:38.187Z,760.80
2023-04-08T12:56:06.378Z,716.30
2023-04-08T12:58:33.792Z,669.33
2023-04-08T13:01:01.241Z,631.27
2023-04-08T13:03:31.881Z,647.30
2023-04-08T13:05:59.436Z,626.50
2023-04-08T13:08:26.885Z,703.93
2023-04-08T13:10:55.273Z,790.97
2023-04-08T13:13:22.688Z,750.53
2023-04-08T13:15:50.140Z,764.83
2023-04-08T13:18:17.893Z,723.87
2023-04-08T13:20:45.243Z,743.93
2023-04-08T13:23:13.262Z,752.60
2023-04-08T13:25:40.795Z,751.23
2023-04-08T13:28:08.351Z,596.13
2023-04-08T13:30:35.787Z,703.20
2023-04-08T13:33:03.269Z,782.40
2023-04-08T13:35:30.701Z,810.47
2023-04-08T13:37:58.163Z,805.03
2023-04-08T13:40:25.522Z,822.43
2023-04-08T13:42:52.911Z,822.03
2023-04-08T13:45:20.654Z,846.30
2023-04-08T13:47:48.094Z,842.27
2023-04-08T13:50:15.765Z,732.07
2023-04-08T13:52:43.207Z,730.13
2023-04-08T13:55:10.639Z,709.73
2023-04-08T13:57:38.010Z,765.37
2023-04-08T14:00:05.832Z,777.17
2023-04-08T14:02:33.602Z,774.90
2023-04-08T14:05:01.018Z,804.27
2023-04-08T14:07:31.017Z,819.97
2023-04-08T14:09:58.314Z,846.00
2023-04-08T14:12:25.269Z,852.27
2023-04-08T14:14:52.840Z,834.83
2023-04-08T14:17:19.857Z,837.60
2023-04-08T14:19:46.811Z,843.37
2023-04-08T14:22:15.104Z,757.60
2023-04-08T14:27:19.281Z,825.20
2023-04-08T14:29:46.690Z,833.50
2023-04-08T14:32:14.035Z,824.67
2023-04-08T14:34:43.426Z,833.67
2023-04-08T14:37:10.540Z,817.70
2023-04-08T14:39:37.919Z,809.47
2023-04-08T14:42:05.563Z,809.90
2023-04-08T14:44:33.290Z,803.40
2023-04-08T14:47:00.912Z,757.10
2023-04-08T14:49:28.164Z,766.97
2023-04-08T14:51:55.977Z,797.17
2023-04-08T14:54:23.348Z,770.73
2023-04-08T14:56:51.053Z,731.10
2023-04-08T14:59:18.539Z,731.07
2023-04-08T15:01:46.137Z,719.53
2023-04-08T15:04:13.699Z,749.33
2023-04-08T15:06:41.317Z,740.87
2023-04-08T15:09:09.002Z,732.27
2023-04-08T15:11:36.425Z,700.23
2023-04-08T15:14:07.272Z,702.00
2023-04-08T15:16:34.940Z,702.50
2023-04-08T15:19:02.878Z,670.13
2023-04-08T15:21:31.166Z,664.20
2023-04-08T15:23:58.592Z,652.13
2023-04-08T15:26:26.209Z,637.13
2023-04-08T15:28:57.332Z,653.10
2023-04-08T15:31:25.066Z,646.77
2023-04-08T15:33:53.290Z,630.20
2023-04-08T15:36:21.235Z,645.33
2023-04-08T15:41:24.716Z,644.40
2023-04-08T15:43:54.369Z,653.27
2023-04-08T15:46:22.198Z,635.13
2023-04-08T15:48:50.887Z,638.40
2023-04-08T15:51:19.762Z,653.27
2023-04-08T15:53:47.332Z,672.63
2023-04-08T15:56:16.335Z,667.43
2023-04-08T15:58:47.326Z,673.47
2023-04-08T16:01:15.371Z,672.33
2023-04-08T16:03:43.453Z,663.83
2023-04-08T16:06:11.348Z,640.93
2023-04-08T16:08:39.442Z,660.73
2023-04-08T16:11:08.152Z,639.80
2023-04-08T16:13:39.175Z,658.20
2023-04-08T16:16:06.897Z,657.17
2023-04-08T16:18:34.478Z,646.17
2023-04-08T16:21:06.167Z,626.70
2023-04-08T16:23:35.689Z,602.90
2023-04-08T16:26:08.241Z,619.90
2023-04-08T16:28:37.098Z,601.33
2023-04-08T16:31:04.568Z,601.70
2023-04-08T16:33:32.713Z,584.47
2023-04-08T16:36:01.491Z,609.43
2023-04-08T16:38:29.051Z,598.27
2023-04-08T16:40:59.312Z,600.93
2023-04-08T16:43:27.323Z,608.57
2023-04-08T16:45:54.779Z,591.60
2023-04-08T16:48:23.217Z,575.23
2023-04-08T16:50:50.880Z,584.57
2023-04-08T16:53:18.504Z,591.33
2023-04-08T16:55:46.225Z,630.03
2023-04-08T16:58:13.667Z,608.93
2023-04-08T17:00:41.497Z,624.40
2023-04-08T17:03:09.020Z,638.23
2023-04-08T17:05:37.344Z,635.33
2023-04-08T17:08:05.276Z,632.87
2023-04-08T17:10:32.858Z,627.70
2023-04-08T17:13:00.479Z,633.00
2023-04-08T17:15:27.881Z,633.27
2023-04-08T17:17:56.167Z,590.83
2023-04-08T17:20:24.981Z,578.47
2023-04-08T17:22:54.718Z,597.30
2023-04-08T17:25:22.251Z,547.50
2023-04-08T17:27:49.645Z,556.87
2023-04-08T17:30:17.056Z,540.93
2023-04-08T17:32:44.545Z,515.47
2023-04-08T17:35:12.348Z,488.60
2023-04-08T17:37:39.725Z,474.63
2023-04-08T17:40:07.937Z,447.10
2023-04-08T17:42:35.344Z,464.00
2023-04-08T17:45:02.814Z,447.80
2023-04-08T17:47:30.463Z,482.33
2023-04-08T17:49:58.006Z,476.73
2023-04-08T17:52:25.559Z,418.77
2023-04-08T17:54:53.677Z,398.03
2023-04-08T17:57:21.201Z,386.73
2023-04-08T17:59:53.233Z,419.00
2023-04-08T18:02:20.769Z,411.43
2023-04-08T18:04:48.699Z,415.10
2023-04-08T18:07:15.689Z,448.67
2023-04-08T18:09:43.023Z,421.07
2023-04-08T18:12:11.444Z,447.27
2023-04-08T18:14:39.778Z,445.60
2023-04-08T18:17:07.492Z,434.13
2023-04-08T18:19:34.523Z,464.33
2023-04-08T18:22:02.358Z,504.97
2023-04-08T18:24:30.211Z,459.17
2023-04-08T18:27:04.433Z,495.57
2023-04-08T18:29:32.488Z,500.47
2023-04-08T18:31:59.892Z,478.03
2023-04-08T18:34:27.303Z,492.77
2023-04-08T18:36:54.755Z,493.47
2023-04-08T18:39:22.786Z,506.53
2023-04-08T18:41:50.001Z,497.23
2023-04-08T18:44:17.572Z,518.47
2023-04-08T18:46:45.987Z,472.27
2023-04-08T18:49:12.977Z,502.80
2023-04-08T18:51:42.144Z,510.83
2023-04-08T18:54:13.932Z,488.50
2023-04-08T18:56:41.113Z,458.03
2023-04-08T18:59:08.195Z,435.43
2023-04-08T19:01:36.357Z,441.57
2023-04-08T19:04:08.290Z,457.30
2023-04-08T19:06:37.779Z,467.00
2023-04-08T19:09:07.440Z,469.70
2023-04-08T19:11:50.046Z,455.53
2023-04-08T19:14:18.195Z,417.27
2023-04-08T19:16:46.170Z,390.23
2023-04-08T19:19:13.161Z,398.07
2023-04-08T19:21:41.065Z,386.20
2023-04-08T19:24:09.368Z,378.93
2023-04-08T19:26:36.824Z,395.77
2023-04-08T19:29:03.827Z,410.33
2023-04-08T19:31:31.703Z,377.90
2023-04-08T19:33:59.073Z,391.30
2023-04-08T19:36:26.285Z,387.40
2023-04-08T19:38:53.738Z,417.30
2023-04-08T19:41:21.507Z,395.10
2023-04-08T19:43:49.102Z,407.90
2023-04-08T19:46:17.177Z,396.97
2023-04-08T19:48:45.529Z,409.93
2023-04-08T19:51:22.681Z,390.73
2023-04-08T19:53:51.255Z,385.87
2023-04-08T19:56:19.173Z,389.47
2023-04-08T19:58:46.838Z,409.30
2023-04-08T20:01:14.473Z,408.17
2023-04-08T20:03:42.474Z,373.23
2023-04-08T20:06:09.950Z,397.03
2023-04-08T20:08:37.065Z,388.83
2023-04-08T20:11:04.843Z,411.17
2023-04-08T20:13:32.281Z,401.73
2023-04-08T20:15:59.826Z,401.93
2023-04-08T20:18:27.365Z,387.80
2023-04-08T20:20:54.934Z,405.23
2023-04-08T20:23:22.653Z,390.33
2023-04-08T20:25:50.370Z,388.70
2023-04-08T20:28:18.904Z,386.40
2023-04-08T20:30:47.537Z,387.77
2023-04-08T20:33:15.084Z,419.57
2023-04-08T20:35:42.653Z,399.67
2023-04-08T20:38:10.167Z,391.10
2023-04-08T20:40:41.529Z,396.77
2023-04-08T20:43:12.634Z,403.83
2023-04-08T20:45:40.109Z,401.20
2023-04-08T20:48:07.778Z,399.00
2023-04-08T20:50:35.547Z,406.70
2023-04-08T20:53:03.094Z,384.90
2023-04-08T20:55:30.754Z,377.13
2023-04-08T20:57:58.255Z,394.97
2023-04-08T21:00:25.593Z,369.00
2023-04-08T21:02:53.454Z,381.60
2023-04-08T21:05:20.587Z,372.93
2023-04-08T21:07:47.932Z,373.97
2023-04-08T21:10:17.539Z,382.07
2023-04-08T21:12:45.773Z,367.40
2023-04-08T21:15:12.774Z,374.50
2023-04-08T21:17:40.337Z,394.57
2023-04-08T21:20:10.700Z,390.67
2023-04-08T21:22:38.374Z,388.63
2023-04-08T21:25:06.469Z,383.77
2023-04-08T21:27:33.833Z,384.53
2023-04-08T21:30:01.320Z,389.70
2023-04-08T21:32:30.189Z,386.80
2023-04-08T21:34:57.994Z,388.73
2023-04-08T21:37:25.543Z,391.60
2023-04-08T21:39:54.004Z,391.07
2023-04-08T21:42:22.867Z,388.60
2023-04-08T21:44:50.783Z,397.73
2023-04-08T21:47:18.643Z,391.17
2023-04-08T21:49:46.105Z,379.07
2023-04-08T21:52:13.448Z,390.63
2023-04-08T21:54:40.905Z,395.27
2023-04-08T21:57:08.330Z,378.03
2023-04-08T21:59:35.730Z,372.00
2023-04-08T22:02:04.519Z,386.73
2023-04-08T22:04:32.019Z,394.97
2023-04-08T22:06:59.370Z,381.67
2023-04-08T22:09:27.150Z,373.23
2023-04-08T22:11:54.782Z,407.57
2023-04-08T22:14:22.171Z,389.20
2023-04-08T22:16:49.720Z,389.17
2023-04-08T22:19:17.223Z,387.33
2023-04-08T22:21:44.632Z,374.37
2023-04-08T22:24:12.028Z,363.50
2023-04-08T22:26:39.402Z,359.23
2023-04-08T22:29:06.803Z,398.50
2023-04-08T22:31:33.824Z,375.87
2023-04-08T22:34:01.197Z,371.97
2023-04-08T22:36:28.558Z,382.00
2023-04-08T22:38:55.954Z,384.50
2023-04-08T22:41:23.994Z,380.93
2023-04-08T22:43:51.607Z,384.30
2023-04-08T22:46:20.158Z,380.17
2023-04-08T22:48:49.476Z,366.90
2023-04-08T22:51:17.339Z,384.80
2023-04-08T22:53:44.813Z,386.73
2023-04-08T22:56:12.317Z,385.03
2023-04-08T22:58:39.741Z,390.60
2023-04-08T23:01:18.187Z,388.63
2023-04-08T23:04:03.963Z,376.50
2023-04-08T23:06:31.368Z,386.60
2023-04-08T23:08:58.754Z,380.77
2023-04-08T23:11:26.328Z,399.50
2023-04-08T23:13:53.636Z,389.40
2023-04-08T23:16:21.625Z,378.87
2023-04-08T23:18:49.020Z,369.63
2023-04-08T23:21:16.341Z,373.13
2023-04-08T23:23:43.717Z,392.80
2023-04-08T23:26:21.314Z,383.57
2023-04-08T23:28:48.684Z,375.43
2023-04-08T23:31:16.170Z,378.47
2023-04-08T23:33:43.595Z,365.80
2023-04-08T23:36:12.049Z,370.30
2023-04-08T23:38:39.542Z,388.57
2023-04-08T23:41:07.736Z,383.70
2023-04-08T23:43:35.722Z,368.20
2023-04-08T23:46:03.237Z,366.93
2023-04-08T23:48:30.286Z,375.73
2023-04-08T23:50:57.308Z,365.27
2023-04-08T23:53:24.659Z,374.37
2023-04-08T23:55:52.072Z,383.73
2023-04-08T23:58:19.487Z,379.33
